sensor_id;sensor_type;location;lat;lon;timestamp;P1;durP1;ratioP1;P2;durP2;ratioP2
71162;SDS011;58858;50.948;6.566;2022-07-22T00:03:08;22.27;;;7.70;;
71162;SDS011;58858;50.948;6.566;2022-07-22T00:13:10;11.10;;;5.75;;
71162;SDS011;58858;50.948;6.566;2022-07-22T00:23:11;16.52;;;7.53;;
71162;SDS011;58858;50.948;6.566;2022-07-22T00:33:12;18.00;;;6.20;;
71162;SDS011;58858;50.948;6.566;2022-07-22T00:43:13;15.65;;;6.68;;
71162;SDS011;58858;50.948;6.566;2022-07-22T00:53:14;15.50;;;6.65;;
71162;SDS011;58858;50.948;6.566;2022-07-22T01:03:16;13.07;;;7.20;;
71162;SDS011;58858;50.948;6.566;2022-07-22T01:13:17;17.77;;;8.52;;
71162;SDS011;58858;50.948;6.566;2022-07-22T01:23:18;13.75;;;7.32;;
71162;SDS011;58858;50.948;6.566;2022-07-22T01:33:20;13.50;;;6.72;;
71162;SDS011;58858;50.948;6.566;2022-07-22T01:43:22;11.60;;;5.97;;
71162;SDS011;58858;50.948;6.566;2022-07-22T01:53:24;9.52;;;5.28;;
71162;SDS011;58858;50.948;6.566;2022-07-22T02:03:25;11.55;;;5.30;;
71162;SDS011;58858;50.948;6.566;2022-07-22T02:13:26;21.20;;;8.38;;
71162;SDS011;58858;50.948;6.566;2022-07-22T02:23:27;15.52;;;8.23;;
71162;SDS011;58858;50.948;6.566;2022-07-22T02:33:28;16.88;;;7.07;;
71162;SDS011;58858;50.948;6.566;2022-07-22T02:43:31;16.92;;;7.60;;
71162;SDS011;58858;50.948;6.566;2022-07-22T02:53:32;12.32;;;6.30;;
71162;SDS011;58858;50.948;6.566;2022-07-22T03:03:35;11.30;;;7.43;;
71162;SDS011;58858;50.948;6.566;2022-07-22T03:13:36;15.50;;;6.97;;
71162;SDS011;58858;50.948;6.566;2022-07-22T03:23:40;13.45;;;5.47;;
71162;SDS011;58858;50.948;6.566;2022-07-22T03:33:42;12.85;;;6.45;;
71162;SDS011;58858;50.948;6.566;2022-07-22T03:43:44;13.15;;;6.75;;
71162;SDS011;58858;50.948;6.566;2022-07-22T03:53:46;12.23;;;6.07;;
71162;SDS011;58858;50.948;6.566;2022-07-22T04:03:47;11.30;;;5.20;;
71162;SDS011;58858;50.948;6.566;2022-07-22T04:14:02;11.32;;;5.82;;
71162;SDS011;58858;50.948;6.566;2022-07-22T04:24:04;15.18;;;7.32;;
71162;SDS011;58858;50.948;6.566;2022-07-22T04:34:06;13.05;;;6.93;;
71162;SDS011;58858;50.948;6.566;2022-07-22T04:44:07;13.30;;;6.72;;
71162;SDS011;58858;50.948;6.566;2022-07-22T04:54:08;15.25;;;6.97;;
71162;SDS011;58858;50.948;6.566;2022-07-22T05:14:18;10.45;;;5.35;;
71162;SDS011;58858;50.948;6.566;2022-07-22T05:24:21;12.10;;;7.18;;
71162;SDS011;58858;50.948;6.566;2022-07-22T05:34:23;17.83;;;8.68;;
71162;SDS011;58858;50.948;6.566;2022-07-22T05:44:28;15.97;;;9.27;;
71162;SDS011;58858;50.948;6.566;2022-07-22T05:54:29;14.35;;;7.75;;
71162;SDS011;58858;50.948;6.566;2022-07-22T06:04:30;11.77;;;7.10;;
71162;SDS011;58858;50.948;6.566;2022-07-22T06:14:36;14.38;;;7.90;;
71162;SDS011;58858;50.948;6.566;2022-07-22T06:24:38;12.00;;;6.43;;
71162;SDS011;58858;50.948;6.566;2022-07-22T06:34:40;8.38;;;5.63;;
71162;SDS011;58858;50.948;6.566;2022-07-22T06:44:42;11.23;;;7.57;;
71162;SDS011;58858;50.948;6.566;2022-07-22T06:54:47;9.18;;;6.55;;
71162;SDS011;58858;50.948;6.566;2022-07-22T07:04:53;12.48;;;7.85;;
71162;SDS011;58858;50.948;6.566;2022-07-22T07:14:54;12.50;;;10.23;;
71162;SDS011;58858;50.948;6.566;2022-07-22T07:24:56;10.80;;;6.93;;
71162;SDS011;58858;50.948;6.566;2022-07-22T07:34:58;8.75;;;5.85;;
71162;SDS011;58858;50.948;6.566;2022-07-22T07:44:59;12.05;;;7.57;;
71162;SDS011;58858;50.948;6.566;2022-07-22T07:55:01;11.18;;;8.07;;
71162;SDS011;58858;50.948;6.566;2022-07-22T08:05:02;9.35;;;5.78;;
71162;SDS011;58858;50.948;6.566;2022-07-22T08:15:04;7.25;;;4.20;;
71162;SDS011;58858;50.948;6.566;2022-07-22T08:25:24;8.82;;;4.78;;
71162;SDS011;58858;50.948;6.566;2022-07-22T08:35:26;8.57;;;5.35;;
71162;SDS011;58858;50.948;6.566;2022-07-22T08:45:29;15.35;;;7.03;;
71162;SDS011;58858;50.948;6.566;2022-07-22T08:55:30;12.75;;;7.05;;
71162;SDS011;58858;50.948;6.566;2022-07-22T09:05:33;15.50;;;7.50;;
71162;SDS011;58858;50.948;6.566;2022-07-22T09:15:39;13.70;;;7.30;;
71162;SDS011;58858;50.948;6.566;2022-07-22T09:26:05;25.15;;;10.40;;
71162;SDS011;58858;50.948;6.566;2022-07-22T09:36:25;15.70;;;11.05;;
71162;SDS011;58858;50.948;6.566;2022-07-22T09:46:35;12.18;;;9.82;;
71162;SDS011;58858;50.948;6.566;2022-07-22T09:57:04;16.95;;;12.02;;
71162;SDS011;58858;50.948;6.566;2022-07-22T10:07:05;18.55;;;15.82;;
71162;SDS011;58858;50.948;6.566;2022-07-22T10:17:14;20.25;;;18.10;;
71162;SDS011;58858;50.948;6.566;2022-07-22T10:27:32;29.33;;;22.17;;
71162;SDS011;58858;50.948;6.566;2022-07-22T10:37:48;29.52;;;26.50;;
71162;SDS011;58858;50.948;6.566;2022-07-22T10:57:55;26.60;;;23.75;;
71162;SDS011;58858;50.948;6.566;2022-07-22T11:07:56;28.23;;;25.33;;
71162;SDS011;58858;50.948;6.566;2022-07-22T11:17:57;27.45;;;23.90;;
71162;SDS011;58858;50.948;6.566;2022-07-22T11:27:58;25.85;;;23.10;;
71162;SDS011;58858;50.948;6.566;2022-07-22T11:37:59;24.85;;;22.33;;
71162;SDS011;58858;50.948;6.566;2022-07-22T11:48:10;25.42;;;22.10;;
71162;SDS011;58858;50.948;6.566;2022-07-22T11:58:11;23.33;;;20.92;;
71162;SDS011;58858;50.948;6.566;2022-07-22T12:08:13;29.05;;;21.27;;
71162;SDS011;58858;50.948;6.566;2022-07-22T12:18:17;21.38;;;19.10;;
71162;SDS011;58858;50.948;6.566;2022-07-22T12:28:20;20.70;;;18.13;;
71162;SDS011;58858;50.948;6.566;2022-07-22T12:38:21;18.80;;;16.85;;
71162;SDS011;58858;50.948;6.566;2022-07-22T12:48:27;19.92;;;16.55;;
71162;SDS011;58858;50.948;6.566;2022-07-22T12:58:30;19.50;;;17.13;;
71162;SDS011;58858;50.948;6.566;2022-07-22T13:08:32;19.17;;;16.60;;
71162;SDS011;58858;50.948;6.566;2022-07-22T13:18:34;19.25;;;16.02;;
71162;SDS011;58858;50.948;6.566;2022-07-22T13:28:35;20.70;;;17.48;;
71162;SDS011;58858;50.948;6.566;2022-07-22T13:38:36;19.25;;;15.80;;
71162;SDS011;58858;50.948;6.566;2022-07-22T13:48:37;20.35;;;16.65;;
71162;SDS011;58858;50.948;6.566;2022-07-22T13:58:38;19.02;;;16.40;;
71162;SDS011;58858;50.948;6.566;2022-07-22T14:08:40;18.75;;;16.65;;
71162;SDS011;58858;50.948;6.566;2022-07-22T14:18:41;21.60;;;18.25;;
71162;SDS011;58858;50.948;6.566;2022-07-22T14:28:42;19.42;;;16.77;;
71162;SDS011;58858;50.948;6.566;2022-07-22T14:38:43;22.48;;;16.25;;
71162;SDS011;58858;50.948;6.566;2022-07-22T14:48:44;18.98;;;14.25;;
71162;SDS011;58858;50.948;6.566;2022-07-22T14:58:46;16.38;;;12.65;;
71162;SDS011;58858;50.948;6.566;2022-07-22T15:08:48;16.00;;;12.23;;
71162;SDS011;58858;50.948;6.566;2022-07-22T15:18:49;16.60;;;12.23;;
71162;SDS011;58858;50.948;6.566;2022-07-22T15:28:50;16.92;;;12.07;;
71162;SDS011;58858;50.948;6.566;2022-07-22T15:38:52;18.20;;;12.00;;
71162;SDS011;58858;50.948;6.566;2022-07-22T15:48:53;18.88;;;12.23;;
71162;SDS011;58858;50.948;6.566;2022-07-22T15:58:54;17.65;;;12.20;;
71162;SDS011;58858;50.948;6.566;2022-07-22T16:09:14;15.48;;;10.50;;
71162;SDS011;58858;50.948;6.566;2022-07-22T16:19:16;15.13;;;10.43;;
71162;SDS011;58858;50.948;6.566;2022-07-22T16:29:17;16.52;;;10.32;;
71162;SDS011;58858;50.948;6.566;2022-07-22T16:39:18;15.60;;;9.70;;
71162;SDS011;58858;50.948;6.566;2022-07-22T16:49:20;11.23;;;7.30;;
71162;SDS011;58858;50.948;6.566;2022-07-22T16:59:21;16.58;;;7.03;;
71162;SDS011;58858;50.948;6.566;2022-07-22T17:09:22;9.57;;;7.15;;
71162;SDS011;58858;50.948;6.566;2022-07-22T17:19:23;12.02;;;8.90;;
71162;SDS011;58858;50.948;6.566;2022-07-22T17:29:24;14.18;;;9.52;;
71162;SDS011;58858;50.948;6.566;2022-07-22T17:39:25;12.70;;;8.40;;
71162;SDS011;58858;50.948;6.566;2022-07-22T17:49:26;13.02;;;8.57;;
71162;SDS011;58858;50.948;6.566;2022-07-22T17:59:27;14.00;;;7.25;;
71162;SDS011;58858;50.948;6.566;2022-07-22T18:09:28;11.75;;;6.20;;
71162;SDS011;58858;50.948;6.566;2022-07-22T18:19:30;10.48;;;5.45;;
71162;SDS011;58858;50.948;6.566;2022-07-22T18:29:31;12.48;;;6.13;;
71162;SDS011;58858;50.948;6.566;2022-07-22T18:39:32;15.23;;;9.23;;
71162;SDS011;58858;50.948;6.566;2022-07-22T18:49:33;13.43;;;10.55;;
71162;SDS011;58858;50.948;6.566;2022-07-22T18:59:34;14.85;;;11.10;;
71162;SDS011;58858;50.948;6.566;2022-07-22T19:09:36;14.90;;;11.25;;
71162;SDS011;58858;50.948;6.566;2022-07-22T19:19:37;18.13;;;12.05;;
71162;SDS011;58858;50.948;6.566;2022-07-22T19:29:40;14.30;;;11.30;;
71162;SDS011;58858;50.948;6.566;2022-07-22T19:39:41;16.35;;;12.73;;
71162;SDS011;58858;50.948;6.566;2022-07-22T19:49:42;20.40;;;15.43;;
71162;SDS011;58858;50.948;6.566;2022-07-22T19:59:43;16.25;;;13.00;;
71162;SDS011;58858;50.948;6.566;2022-07-22T20:09:44;16.38;;;14.43;;
71162;SDS011;58858;50.948;6.566;2022-07-22T20:19:45;18.38;;;14.30;;
71162;SDS011;58858;50.948;6.566;2022-07-22T20:29:49;18.58;;;14.23;;
71162;SDS011;58858;50.948;6.566;2022-07-22T20:39:50;18.77;;;14.27;;
71162;SDS011;58858;50.948;6.566;2022-07-22T20:49:51;19.23;;;15.52;;
71162;SDS011;58858;50.948;6.566;2022-07-22T20:59:52;20.20;;;16.13;;
71162;SDS011;58858;50.948;6.566;2022-07-22T21:09:53;24.08;;;16.58;;
71162;SDS011;58858;50.948;6.566;2022-07-22T21:19:55;22.08;;;15.82;;
71162;SDS011;58858;50.948;6.566;2022-07-22T21:29:58;23.95;;;17.23;;
71162;SDS011;58858;50.948;6.566;2022-07-22T21:39:59;18.48;;;14.98;;
71162;SDS011;58858;50.948;6.566;2022-07-22T21:50:00;23.13;;;16.60;;
71162;SDS011;58858;50.948;6.566;2022-07-22T22:00:03;21.02;;;16.60;;
71162;SDS011;58858;50.948;6.566;2022-07-22T22:10:09;23.88;;;18.55;;
71162;SDS011;58858;50.948;6.566;2022-07-22T22:20:11;20.92;;;10.50;;
71162;SDS011;58858;50.948;6.566;2022-07-22T22:30:12;15.65;;;7.72;;
71162;SDS011;58858;50.948;6.566;2022-07-22T22:40:13;13.32;;;7.10;;
71162;SDS011;58858;50.948;6.566;2022-07-22T22:50:14;11.10;;;7.60;;
71162;SDS011;58858;50.948;6.566;2022-07-22T23:00:16;10.98;;;6.40;;
71162;SDS011;58858;50.948;6.566;2022-07-22T23:10:17;10.95;;;7.55;;
71162;SDS011;58858;50.948;6.566;2022-07-22T23:20:18;10.10;;;6.15;;
71162;SDS011;58858;50.948;6.566;2022-07-22T23:30:19;12.32;;;8.48;;
71162;SDS011;58858;50.948;6.566;2022-07-22T23:40:20;11.80;;;7.97;;
71162;SDS011;58858;50.948;6.566;2022-07-22T23:50:21;12.60;;;7.35;;
